Time;durP1;ratioP1;P1;durP2;ratioP2;P2;SDS_P1;SDS_P2;PMS_P1;PMS_P2;Temp;Humidity;BMP_temperature;BMP_pressure;BME280_temperature;BME280_humidity;BME280_pressure;Samples;Min_cycle;Max_cycle;Signal;HPM_P1;HPM_P2
2022/01/26 00:06:20;;;;;;;24.30;16.73;;;;;;;1.21;100.00;100715.75;4823572;29;20574;-81
2022/01/26 00:08:48;;;;;;;22.63;16.40;;;;;;;1.19;100.00;100703.66;4810393;29;20186;-81
2022/01/26 00:11:14;;;;;;;26.10;17.00;;;;;;;1.18;100.00;100700.19;4793690;29;20318;-80
2022/01/26 00:13:41;;;;;;;23.30;16.73;;;;;;;1.28;100.00;100708.97;4823764;29;20476;-82
2022/01/26 00:16:17;;;;;;;23.43;15.80;;;;;;;1.27;100.00;100703.81;4808342;29;20214;-80
2022/01/26 00:18:44;;;;;;;23.37;15.67;;;;;;;1.20;100.00;100692.13;4808475;29;20292;-81
2022/01/26 00:21:28;;;;;;;23.40;16.03;;;;;;;1.26;100.00;100692.41;4823399;29;20202;-81
2022/01/26 00:26:59;;;;;;;21.03;14.93;;;;;;;1.14;100.00;100693.50;4824225;29;20215;-81
2022/01/26 00:29:31;;;;;;;22.67;14.63;;;;;;;1.21;100.00;100681.41;4827154;29;20483;-81
2022/01/26 00:43:10;;;;;;;20.17;13.47;;;;;;;1.28;100.00;100705.50;4826719;29;20189;-81
2022/01/26 00:45:37;;;;;;;18.33;13.63;;;;;;;1.23;100.00;100702.41;4826299;29;20297;-81
2022/01/26 00:48:08;;;;;;;19.57;13.57;;;;;;;1.34;100.00;100699.69;4811443;29;20205;-81
2022/01/26 00:50:36;;;;;;;17.57;13.20;;;;;;;1.45;100.00;100694.28;4826327;29;20284;-82
2022/01/26 00:53:04;;;;;;;23.67;14.17;;;;;;;1.43;100.00;100701.53;4826517;29;20205;-81
2022/01/26 00:55:31;;;;;;;18.77;13.40;;;;;;;1.38;100.00;100702.88;4811228;29;20229;-81
2022/01/26 00:57:57;;;;;;;19.87;13.50;;;;;;;1.43;100.00;100703.31;4811424;29;20481;-80
2022/01/26 01:00:26;;;;;;;17.67;12.97;;;;;;;1.36;100.00;100704.81;4811491;29;20250;-81
2022/01/26 01:02:54;;;;;;;20.47;14.03;;;;;;;1.28;100.00;100692.28;4826247;29;20201;-81
2022/01/26 01:05:50;;;;;;;21.00;14.13;;;;;;;1.30;100.00;100690.38;4811003;29;20595;-80
2022/01/26 01:08:16;;;;;;;20.10;13.33;;;;;;;1.42;100.00;100709.56;4810573;29;20525;-81
2022/01/26 01:10:45;;;;;;;20.87;13.93;;;;;;;1.39;100.00;100710.69;4826018;29;20233;-81
2022/01/26 01:13:17;;;;;;;20.37;13.63;;;;;;;1.42;100.00;100709.56;4811204;29;20193;-81
2022/01/26 01:15:44;;;;;;;20.83;14.27;;;;;;;1.33;100.00;100711.22;4810815;29;20309;-81
2022/01/26 01:18:25;;;;;;;21.57;14.60;;;;;;;1.32;100.00;100717.47;4826132;29;20205;-80
2022/01/26 01:31:40;;;;;;;22.90;15.37;;;;;;;1.36;100.00;100702.16;4825685;29;20209;-80
2022/01/26 01:33:57;;;;;;;21.83;14.47;;;;;;;1.32;100.00;100697.16;4825582;29;20201;-81
2022/01/26 01:36:23;;;;;;;24.00;14.53;;;;;;;1.21;100.00;100688.53;4825568;29;20216;-81
2022/01/26 01:38:50;;;;;;;24.03;14.60;;;;;;;1.31;100.00;100700.78;4831075;29;20245;-80
2022/01/26 01:41:17;;;;;;;19.50;13.97;;;;;;;1.27;100.00;100696.75;4844027;29;20189;-81
2022/01/26 01:43:44;;;;;;;20.93;13.77;;;;;;;1.39;100.00;100694.84;4844119;29;20203;-81
2022/01/26 01:46:11;;;;;;;22.53;14.53;;;;;;;1.48;100.00;100701.13;4828615;29;20222;-81
2022/01/26 01:48:38;;;;;;;21.50;14.17;;;;;;;1.40;100.00;100699.13;4844190;29;20667;-81
2022/01/26 01:51:08;;;;;;;20.90;13.67;;;;;;;1.54;100.00;100711.94;4843837;29;20236;-80
2022/01/26 01:53:41;;;;;;;22.00;14.77;;;;;;;1.45;100.00;100704.00;4828656;29;20205;-80
2022/01/26 01:56:10;;;;;;;22.63;15.17;;;;;;;1.52;100.00;100702.50;4843678;29;20272;-81
2022/01/26 01:58:37;;;;;;;23.20;14.43;;;;;;;1.45;100.00;100701.38;4828244;29;20303;-80
2022/01/26 02:01:05;;;;;;;20.53;14.30;;;;;;;1.38;100.00;100700.25;4843489;29;20193;-82
2022/01/26 02:03:32;;;;;;;22.00;14.60;;;;;;;1.42;100.00;100689.28;4828378;29;20201;-81
2022/01/26 02:05:59;;;;;;;22.23;14.53;;;;;;;1.50;100.00;100688.59;4843619;29;20201;-81
2022/01/26 02:08:26;;;;;;;21.57;14.57;;;;;;;1.52;100.00;100694.59;4843401;29;20189;-80
2022/01/26 02:10:53;;;;;;;21.30;14.53;;;;;;;1.52;100.00;100678.75;4843331;29;20990;-81
2022/01/26 02:14:06;;;;;;;22.77;14.47;;;;;;;1.41;100.00;100671.75;4843547;29;20621;-81
2022/01/26 02:16:22;;;;;;;24.57;15.23;;;;;;;1.33;100.00;100675.09;4841020;29;20220;-80
2022/01/26 02:50:05;;;;;;;25.00;15.80;;;;;;;1.29;100.00;100665.78;4842753;29;20193;-81
2022/01/26 03:00:39;;;;;;;26.73;15.83;;;;;;;1.27;100.00;100669.50;4763557;29;20207;-80
2022/01/26 03:03:19;;;;;;;23.40;14.93;;;;;;;1.29;100.00;100664.94;4812334;29;20512;-81
2022/01/26 03:05:55;;;;;;;25.80;15.83;;;;;;;1.18;100.00;100663.22;4827650;29;20216;-81
2022/01/26 03:08:30;;;;;;;22.97;14.90;;;;;;;1.25;100.00;100661.72;4827589;29;20192;-81
2022/01/26 03:11:02;;;;;;;21.27;13.77;;;;;;;1.42;100.00;100659.38;4827146;29;20650;-81
2022/01/26 03:13:32;;;;;;;19.73;13.00;;;;;;;1.42;100.00;100652.31;4842622;29;20189;-80
2022/01/26 03:16:10;;;;;;;21.43;14.27;;;;;;;1.25;100.00;100645.06;4811969;29;20208;-81
2022/01/26 03:21:31;;;;;;;20.07;13.33;;;;;;;1.42;100.00;100649.66;4842240;29;20201;-80
2022/01/26 03:34:35;;;;;;;21.50;13.17;;;;;;;1.30;100.00;100661.31;4826996;29;20489;-80
2022/01/26 03:37:07;;;;;;;17.97;11.97;;;;;;;1.39;100.00;100665.78;4841897;29;20209;-81
2022/01/26 03:39:43;;;;;;;17.83;12.57;;;;;;;1.39;100.00;100664.97;4841172;29;20328;-81
2022/01/26 03:42:15;;;;;;;18.80;12.80;;;;;;;1.40;100.00;100656.06;4841936;29;20547;-80
2022/01/26 03:44:42;;;;;;;19.07;12.90;;;;;;;1.40;100.00;100661.34;4811807;29;20253;-80
2022/01/26 03:47:11;;;;;;;18.77;12.60;;;;;;;1.33;100.00;100659.25;4841892;29;20197;-81
2022/01/26 03:49:38;;;;;;;20.37;12.73;;;;;;;1.37;100.00;100665.09;4826832;29;20288;-81
2022/01/26 03:52:05;;;;;;;18.40;12.13;;;;;;;1.35;100.00;100669.69;4842084;29;20213;-82
2022/01/26 03:54:33;;;;;;;19.77;13.27;;;;;;;1.39;100.00;100665.78;4841877;29;20200;-81
2022/01/26 03:57:00;;;;;;;20.23;12.37;;;;;;;1.43;100.00;100661.06;4811582;29;20209;-81
2022/01/26 03:59:26;;;;;;;19.40;12.87;;;;;;;1.34;100.00;100657.44;4811623;29;20208;-82
2022/01/26 04:01:53;;;;;;;19.37;12.70;;;;;;;1.27;100.00;100637.81;4843289;29;20528;-81
2022/01/26 04:04:20;;;;;;;18.87;12.30;;;;;;;1.39;100.00;100647.31;4830323;29;20308;-80
2022/01/26 04:06:47;;;;;;;19.90;12.53;;;;;;;1.37;100.00;100661.59;4830511;29;20216;-80
2022/01/26 04:09:16;;;;;;;19.43;12.33;;;;;;;1.23;100.00;100649.63;4830401;29;20617;-81
2022/01/26 04:11:47;;;;;;;19.03;12.37;;;;;;;1.28;100.00;100656.16;4830024;29;20318;-80
2022/01/26 04:14:19;;;;;;;19.33;12.33;;;;;;;1.22;100.00;100650.59;4830626;29;20196;-81
2022/01/26 04:16:46;;;;;;;17.53;12.23;;;;;;;1.30;100.00;100643.69;4845302;29;20583;-81
2022/01/26 04:19:13;;;;;;;18.83;11.90;;;;;;;1.30;100.00;100648.97;4830406;29;20216;-81
2022/01/26 04:26:52;;;;;;;20.07;12.00;;;;;;;1.35;100.00;100658.28;4845484;29;20211;-82
2022/01/26 04:29:27;;;;;;;16.23;11.33;;;;;;;1.31;100.00;100655.06;4845546;29;20190;-81
2022/01/26 04:31:54;;;;;;;15.57;10.67;;;;;;;1.18;100.00;100636.00;4829696;29;20227;-80
2022/01/26 04:34:21;;;;;;;18.13;11.60;;;;;;;1.32;100.00;100649.66;4829821;29;20197;-81
2022/01/26 04:36:56;;;;;;;17.20;11.03;;;;;;;1.32;100.00;100651.44;4846098;29;20197;-81
2022/01/26 04:39:32;;;;;;;14.53;9.63;;;;;;;1.30;100.00;100641.03;4829612;29;20533;-81
2022/01/26 04:42:04;;;;;;;13.33;8.87;;;;;;;1.33;100.00;100627.56;4843152;29;20197;-80
2022/01/26 04:44:40;;;;;;;14.57;9.53;;;;;;;1.34;100.00;100633.69;4829712;29;20205;-81
2022/01/26 04:47:07;;;;;;;15.40;9.57;;;;;;;1.26;100.00;100626.41;4827903;29;20193;-81
2022/01/26 04:49:34;;;;;;;14.90;8.93;;;;;;;1.37;100.00;100632.56;4828549;29;20504;-81
2022/01/26 04:52:02;;;;;;;15.27;9.30;;;;;;;1.49;100.00;100634.97;4844648;29;20221;-80
2022/01/26 04:54:29;;;;;;;13.47;9.07;;;;;;;1.39;100.00;100634.09;4829386;29;20696;-81
2022/01/26 04:56:56;;;;;;;12.87;9.23;;;;;;;1.44;100.00;100639.81;4829235;29;20312;-81
2022/01/26 04:59:23;;;;;;;12.87;9.10;;;;;;;1.45;100.00;100638.81;4844791;29;20616;-81
2022/01/26 05:01:50;;;;;;;12.03;8.53;;;;;;;1.40;100.00;100625.19;4829137;29;20533;-81
2022/01/26 05:04:17;;;;;;;12.77;8.77;;;;;;;1.50;100.00;100617.28;4828937;29;20292;-81
2022/01/26 05:06:43;;;;;;;13.57;9.20;;;;;;;1.38;100.00;100613.94;4829084;29;20488;-80
2022/01/26 05:09:10;;;;;;;12.67;8.30;;;;;;;1.27;100.00;100606.97;4829153;29;20200;-81
2022/01/26 05:11:40;;;;;;;14.10;9.83;;;;;;;1.32;100.00;100625.88;4844081;29;20217;-81
2022/01/26 05:14:07;;;;;;;13.00;9.07;;;;;;;1.24;100.00;100619.63;4829050;29;20333;-80
2022/01/26 05:16:34;;;;;;;14.57;9.17;;;;;;;1.44;100.00;100623.13;4844048;29;20519;-81
2022/01/26 05:19:04;;;;;;;13.50;9.13;;;;;;;1.39;100.00;100626.19;4844157;29;20627;-81
2022/01/26 05:21:31;;;;;;;14.07;9.10;;;;;;;1.32;100.00;100631.16;4844321;29;20502;-80
2022/01/26 05:23:58;;;;;;;12.67;9.27;;;;;;;1.30;100.00;100619.91;4844056;29;20200;-80
2022/01/26 05:26:25;;;;;;;13.50;9.17;;;;;;;1.25;100.00;100613.38;4844005;29;20589;-80
2022/01/26 05:28:52;;;;;;;13.67;9.10;;;;;;;1.23;100.00;100628.50;4828527;29;20516;-81
2022/01/26 05:31:19;;;;;;;12.50;9.00;;;;;;;1.34;100.00;100644.25;4828334;29;20252;-81
2022/01/26 05:33:47;;;;;;;13.67;9.30;;;;;;;1.27;100.00;100625.44;4813904;29;20499;-81
2022/01/26 05:36:14;;;;;;;14.93;9.17;;;;;;;1.30;100.00;100648.13;4828422;29;20201;-81
2022/01/26 05:38:41;;;;;;;13.57;8.57;;;;;;;1.22;100.00;100640.03;4815768;29;20236;-80
2022/01/26 05:41:09;;;;;;;13.93;8.77;;;;;;;1.26;100.00;100642.25;4843615;29;20201;-81
2022/01/26 05:43:36;;;;;;;14.13;9.17;;;;;;;1.32;100.00;100646.16;4843525;29;20660;-81
2022/01/26 05:46:11;;;;;;;14.30;9.30;;;;;;;1.38;100.00;100644.78;4843493;29;20551;-81
2022/01/26 05:48:43;;;;;;;14.07;9.30;;;;;;;1.26;100.00;100636.97;4843786;29;20188;-80
2022/01/26 05:51:11;;;;;;;14.07;9.37;;;;;;;1.28;100.00;100635.06;4858030;29;20208;-81
2022/01/26 05:53:39;;;;;;;14.60;9.20;;;;;;;1.44;100.00;100642.47;4828170;29;20586;-81
2022/01/26 05:56:07;;;;;;;16.10;10.37;;;;;;;1.43;100.00;100642.59;4858691;29;20269;-81
2022/01/26 05:58:34;;;;;;;14.83;9.63;;;;;;;1.39;100.00;100646.47;4858799;29;20204;-80
2022/01/26 06:01:01;;;;;;;13.63;9.33;;;;;;;1.52;100.00;100653.16;4858496;29;20219;-81
2022/01/26 06:03:29;;;;;;;13.00;8.87;;;;;;;1.49;100.00;100639.41;4843385;29;20569;-81
2022/01/26 06:05:56;;;;;;;14.93;9.60;;;;;;;1.32;100.00;100638.25;4843291;29;20216;-80
2022/01/26 06:08:24;;;;;;;13.30;9.00;;;;;;;1.43;100.00;100653.16;4844736;29;20514;-81
2022/01/26 06:10:51;;;;;;;12.17;8.47;;;;;;;1.44;100.00;100650.38;4858341;29;20201;-81
2022/01/26 06:13:18;;;;;;;12.00;8.63;;;;;;;1.28;100.00;100640.31;4843133;29;20224;-80
2022/01/26 06:15:47;;;;;;;11.93;8.90;;;;;;;1.38;100.00;100650.91;4842895;29;20193;-80
2022/01/26 06:18:13;;;;;;;13.73;9.53;;;;;;;1.33;100.00;100656.59;4858306;29;20185;-81
2022/01/26 06:20:40;;;;;;;12.90;8.13;;;;;;;1.33;100.00;100648.69;4842944;29;20300;-80
2022/01/26 06:23:07;;;;;;;12.97;8.27;;;;;;;1.45;100.00;100649.38;4843156;29;20216;-80
2022/01/26 06:25:34;;;;;;;12.70;8.00;;;;;;;1.45;100.00;100652.03;4857398;29;20197;-80
2022/01/26 06:28:06;;;;;;;10.67;7.17;;;;;;;1.42;100.00;100649.66;4842738;29;20594;-81
2022/01/26 06:30:33;;;;;;;10.53;7.03;;;;;;;1.45;100.00;100659.09;4857610;29;20526;-81
2022/01/26 06:33:00;;;;;;;13.23;8.60;;;;;;;1.42;100.00;100652.31;4842775;29;20613;-81
2022/01/26 06:35:27;;;;;;;10.33;7.40;;;;;;;1.46;100.00;100635.22;4857976;29;20485;-81
2022/01/26 06:37:55;;;;;;;12.00;7.50;;;;;;;1.51;100.00;100654.13;4858085;29;20999;-81
2022/01/26 06:40:23;;;;;;;12.23;8.00;;;;;;;1.52;100.00;100644.41;4842464;29;20233;-81
2022/01/26 06:43:00;;;;;;;12.30;7.63;;;;;;;1.56;100.00;100659.00;4857682;29;20208;-81
2022/01/26 06:45:31;;;;;;;11.50;7.53;;;;;;;1.50;100.00;100663.00;4842540;29;20197;-80
2022/01/26 06:50:44;;;;;;;10.77;7.63;;;;;;;1.62;100.00;100655.81;4857959;29;20265;-80
2022/01/26 06:53:13;;;;;;;12.60;7.83;;;;;;;1.55;100.00;100663.44;4842583;29;20220;-80
2022/01/26 06:55:40;;;;;;;14.67;8.63;;;;;;;1.49;100.00;100649.97;4858050;29;20662;-81
2022/01/26 06:58:07;;;;;;;13.90;7.93;;;;;;;1.42;100.00;100649.66;4857860;29;20193;-80
2022/01/26 07:00:34;;;;;;;12.43;8.07;;;;;;;1.45;100.00;100652.03;4857883;29;20205;-81
2022/01/26 07:03:00;;;;;;;12.57;7.80;;;;;;;1.53;100.00;100667.22;4842587;29;20189;-81
2022/01/26 07:05:27;;;;;;;10.03;7.27;;;;;;;1.47;100.00;100649.25;4842453;29;20205;-80
2022/01/26 07:07:54;;;;;;;12.30;7.43;;;;;;;1.60;100.00;100653.31;4842478;29;20688;-80
2022/01/26 07:10:21;;;;;;;12.60;7.60;;;;;;;1.71;100.00;100670.84;4857677;29;20200;-81
2022/01/26 07:12:48;;;;;;;11.67;8.00;;;;;;;1.71;100.00;100669.03;4857593;29;20518;-81
2022/01/26 07:23:46;;;;;;;12.17;8.17;;;;;;;1.55;100.00;100666.09;4842121;29;20292;-80
2022/01/26 07:26:13;;;;;;;12.57;7.90;;;;;;;1.58;100.00;100671.13;4857394;29;20197;-81
2022/01/26 07:28:40;;;;;;;11.57;7.60;;;;;;;1.55;100.00;100671.38;4842368;29;20192;-81
2022/01/26 07:31:08;;;;;;;14.53;8.20;;;;;;;1.65;100.00;100668.75;4842001;29;20201;-80
2022/01/26 07:33:37;;;;;;;11.43;8.17;;;;;;;1.65;100.00;100666.94;4857259;29;20217;-81
2022/01/26 07:36:05;;;;;;;13.23;8.23;;;;;;;1.58;100.00;100673.75;4842255;29;20205;-81
2022/01/26 07:38:32;;;;;;;11.33;8.20;;;;;;;1.55;100.00;100674.00;4841695;29;20935;-81
2022/01/26 07:40:59;;;;;;;12.97;8.37;;;;;;;1.69;100.00;100678.91;4857116;29;20193;-81
2022/01/26 07:43:26;;;;;;;10.50;7.60;;;;;;;1.58;100.00;100675.56;4842078;29;20290;-81
2022/01/26 07:45:53;;;;;;;12.00;7.60;;;;;;;1.57;100.00;100676.53;4857097;29;20276;-80
2022/01/26 07:48:20;;;;;;;14.77;8.33;;;;;;;1.60;100.00;100677.09;4856963;29;20204;-80
2022/01/26 07:50:48;;;;;;;12.23;7.87;;;;;;;1.59;100.00;100672.75;4842944;29;20197;-81
2022/01/26 07:53:17;;;;;;;11.30;7.77;;;;;;;1.71;100.00;100676.13;4857055;29;20528;-81
2022/01/26 07:55:44;;;;;;;12.90;7.80;;;;;;;1.71;100.00;100676.13;4856828;29;20189;-81
2022/01/26 07:58:11;;;;;;;11.77;8.20;;;;;;;1.75;100.00;100675.72;4839616;29;20196;-80
2022/01/26 08:00:38;;;;;;;12.00;8.27;;;;;;;1.82;100.00;100685.75;4823410;29;20204;-82
2022/01/26 08:03:05;;;;;;;12.73;7.93;;;;;;;1.77;100.00;100667.66;4838711;29;20194;-80
2022/01/26 08:05:32;;;;;;;12.83;8.77;;;;;;;1.71;100.00;100671.69;4822957;29;20290;-81
2022/01/26 08:07:59;;;;;;;12.40;8.30;;;;;;;1.73;100.00;100669.72;4838672;29;20210;-81
2022/01/26 08:10:25;;;;;;;10.73;7.60;;;;;;;1.89;100.00;100684.19;4823498;29;20196;-80
2022/01/26 08:12:52;;;;;;;12.47;8.50;;;;;;;1.92;100.00;100702.41;4838698;29;20213;-80
2022/01/26 08:15:24;;;;;;;12.97;8.27;;;;;;;1.97;100.00;100682.53;4809145;29;20297;-80
2022/01/26 08:17:51;;;;;;;9.30;7.30;;;;;;;1.90;100.00;100680.59;4823568;29;20205;-81
2022/01/26 08:20:18;;;;;;;12.73;7.83;;;;;;;1.97;100.00;100682.53;4823464;29;20214;-80
2022/01/26 08:22:44;;;;;;;11.83;7.93;;;;;;;1.96;100.00;100666.84;4823563;29;20190;-80
2022/01/26 08:25:11;;;;;;;10.33;7.33;;;;;;;2.10;100.00;100675.16;4823400;29;20553;-80
2022/01/26 08:27:42;;;;;;;11.30;7.37;;;;;;;2.07;100.00;100667.50;4824769;29;20189;-81
2022/01/26 08:30:14;;;;;;;11.17;7.03;;;;;;;2.11;100.00;100678.63;4838440;29;20218;-80
2022/01/26 08:32:41;;;;;;;10.70;7.43;;;;;;;2.19;100.00;100671.66;4837837;29;20214;-80
2022/01/26 08:35:09;;;;;;;12.63;8.40;;;;;;;2.20;100.00;100685.72;4823271;29;20200;-80
2022/01/26 08:37:35;;;;;;;13.87;7.67;;;;;;;2.16;100.00;100671.97;4823214;29;20210;-80
2022/01/26 08:40:04;;;;;;;13.57;7.17;;;;;;;2.19;100.00;100671.66;4841300;29;20257;-80
2022/01/26 08:42:31;;;;;;;8.87;6.57;;;;;;;2.30;100.00;100675.13;4841742;29;20250;-80
2022/01/26 08:44:57;;;;;;;10.07;6.37;;;;;;;2.31;100.00;100674.16;4826379;29;20193;-80
2022/01/26 08:47:24;;;;;;;12.10;7.30;;;;;;;2.32;100.00;100675.84;4840788;29;20235;-80
2022/01/26 08:49:51;;;;;;;10.67;6.63;;;;;;;2.34;100.00;100661.50;4843967;29;20295;-80
2022/01/26 08:52:18;;;;;;;9.50;6.50;;;;;;;2.28;100.00;100663.88;4844580;29;20255;-80
2022/01/26 08:54:44;;;;;;;11.97;6.27;;;;;;;2.42;100.00;100661.63;4837734;29;20220;-80
2022/01/26 08:57:11;;;;;;;9.80;6.00;;;;;;;2.49;100.00;100665.38;4811188;29;20197;-80
2022/01/26 08:59:37;;;;;;;9.20;5.93;;;;;;;2.52;100.00;100664.25;4826363;29;20201;-80
2022/01/26 09:02:04;;;;;;;8.87;5.67;;;;;;;2.54;100.00;100665.78;4811271;29;20198;-80
2022/01/26 09:04:31;;;;;;;9.83;6.23;;;;;;;2.46;100.00;100662.19;4827683;29;20284;-80
2022/01/26 09:07:01;;;;;;;10.00;5.80;;;;;;;2.54;100.00;100672.88;4826137;29;20304;-80
2022/01/26 09:09:31;;;;;;;10.03;5.97;;;;;;;2.62;100.00;100681.75;4844588;29;20205;-81
2022/01/26 09:12:00;;;;;;;9.30;5.40;;;;;;;2.64;100.00;100671.88;4829211;29;20575;-81
2022/01/26 09:14:29;;;;;;;7.77;5.40;;;;;;;2.55;100.00;100670.09;4828570;29;20197;-80
2022/01/26 09:16:55;;;;;;;10.67;5.70;;;;;;;2.50;100.00;100658.28;4826916;29;20272;-80
2022/01/26 09:19:28;;;;;;;9.97;6.23;;;;;;;2.66;100.00;100680.50;4823609;29;20228;-80
2022/01/26 09:22:04;;;;;;;9.60;5.80;;;;;;;2.85;100.00;100678.75;4843303;29;20189;-80
2022/01/26 09:24:33;;;;;;;9.63;6.37;;;;;;;2.74;100.00;100676.31;4843809;29;20196;-80
2022/01/26 09:27:00;;;;;;;11.07;6.43;;;;;;;2.80;100.00;100679.19;4821968;29;20522;-80
2022/01/26 09:29:27;;;;;;;10.13;6.30;;;;;;;2.87;100.00;100680.31;4826718;29;20257;-81
2022/01/26 09:31:55;;;;;;;10.27;6.23;;;;;;;2.94;100.00;100665.50;4841965;29;20201;-80
2022/01/26 09:34:23;;;;;;;8.23;6.07;;;;;;;2.99;100.00;100678.28;4833721;29;20209;-80
2022/01/26 09:36:50;;;;;;;9.63;6.80;;;;;;;3.06;100.00;100688.19;4825627;29;20510;-81
2022/01/26 09:39:19;;;;;;;9.83;6.60;;;;;;;3.02;100.00;100673.56;4822727;29;20241;-81
2022/01/26 09:41:47;;;;;;;10.13;6.63;;;;;;;3.13;100.00;100675.16;4843507;29;20292;-81
2022/01/26 09:44:14;;;;;;;9.30;6.13;;;;;;;3.19;100.00;100669.28;4833677;29;20291;-80
2022/01/26 09:46:42;;;;;;;10.17;6.50;;;;;;;3.08;100.00;100658.88;4850964;29;20197;-81
2022/01/26 09:49:10;;;;;;;9.57;5.93;;;;;;;3.18;100.00;100667.63;4814767;29;20232;-81
2022/01/26 09:51:43;;;;;;;11.47;6.80;;;;;;;3.20;100.00;100672.78;4810188;29;20597;-80
2022/01/26 09:54:14;;;;;;;10.83;6.37;;;;;;;3.23;100.00;100681.25;4825188;29;20389;-81
2022/01/26 09:56:46;;;;;;;10.57;6.93;;;;;;;3.42;100.00;100677.66;4827367;29;20208;-80
2022/01/26 09:59:14;;;;;;;9.27;6.67;;;;;;;3.54;100.00;100677.34;4842203;29;20189;-81
2022/01/26 10:01:44;;;;;;;10.90;6.70;;;;;;;3.55;100.00;100660.44;4816250;29;20201;-81
2022/01/26 10:04:40;;;;;;;10.07;6.47;;;;;;;3.59;100.00;100684.84;4814655;29;20217;-81
2022/01/26 10:07:47;;;;;;;10.73;6.70;;;;;;;3.70;100.00;100681.13;4811905;29;20225;-80
2022/01/26 10:15:33;;;;;;;10.43;7.03;;;;;;;4.25;100.00;100669.38;4843459;29;20181;-79
2022/01/26 10:18:04;;;;;;;10.80;7.27;;;;;;;4.39;100.00;100658.19;4842914;29;20209;-81
2022/01/26 10:20:52;;;;;;;11.60;6.70;;;;;;;4.44;100.00;100658.56;4811936;29;20204;-81
2022/01/26 10:23:22;;;;;;;10.57;7.10;;;;;;;4.34;100.00;100633.13;4841808;29;20201;-81
2022/01/26 10:26:13;;;;;;;10.87;6.97;;;;;;;4.56;100.00;100651.22;4843038;29;20216;-80
2022/01/26 10:28:40;;;;;;;11.10;6.90;;;;;;;4.72;100.00;100650.44;4842870;29;20298;-81
2022/01/26 10:31:20;;;;;;;10.80;6.73;;;;;;;4.77;100.00;100643.69;4842946;29;20193;-81
2022/01/26 10:34:17;;;;;;;10.07;6.67;;;;;;;4.60;100.00;100641.94;4824815;29;20212;-80
2022/01/26 10:36:50;;;;;;;10.33;7.07;;;;;;;4.72;100.00;100642.47;4824630;29;20594;-80
2022/01/26 10:39:26;;;;;;;11.10;7.33;;;;;;;4.77;100.00;100640.19;4826876;29;20239;-80
2022/01/26 10:41:59;;;;;;;11.53;7.20;;;;;;;4.81;99.81;100646.84;4819072;29;20173;-80
2022/01/26 10:44:32;;;;;;;9.97;6.80;;;;;;;4.75;99.24;100628.91;4834164;29;20618;-80
2022/01/26 10:47:01;;;;;;;11.60;7.40;;;;;;;4.80;100.00;100627.47;4839318;29;20249;-80
2022/01/26 10:50:31;;;;;;;11.77;7.27;;;;;;;5.06;100.00;100631.88;4817644;29;20209;-80
2022/01/26 10:53:12;;;;;;;10.87;6.77;;;;;;;5.05;98.89;100622.22;4832424;29;20224;-81
2022/01/26 10:55:39;;;;;;;12.60;7.80;;;;;;;5.08;100.00;100622.78;4826937;29;20182;-80
2022/01/26 10:58:07;;;;;;;15.37;8.63;;;;;;;4.96;99.96;100620.53;4833720;29;20196;-80
2022/01/26 11:00:36;;;;;;;10.53;7.90;;;;;;;4.95;100.00;100629.50;4812181;29;20207;-80
2022/01/26 11:03:05;;;;;;;11.33;8.07;;;;;;;4.79;100.00;100617.81;4842398;29;20197;-80
2022/01/26 11:05:32;;;;;;;12.33;8.70;;;;;;;4.36;100.00;100604.63;4842354;29;20597;-80
2022/01/26 11:07:59;;;;;;;12.03;8.27;;;;;;;4.52;100.00;100615.34;4811980;29;20197;-80
2022/01/26 11:10:36;;;;;;;13.07;8.23;;;;;;;4.62;100.00;100623.22;4841670;29;20219;-80
2022/01/26 11:13:04;;;;;;;14.10;8.10;;;;;;;4.31;100.00;100598.94;4827199;29;20232;-80
2022/01/26 11:15:31;;;;;;;12.53;8.50;;;;;;;4.33;100.00;100604.94;4842019;29;20693;-80
2022/01/26 11:18:09;;;;;;;12.43;7.57;;;;;;;4.33;100.00;100600.47;4826830;29;20240;-80
2022/01/26 11:20:50;;;;;;;13.80;8.47;;;;;;;4.24;100.00;100590.81;4827282;29;20196;-80
2022/01/26 11:23:33;;;;;;;15.43;9.63;;;;;;;4.60;100.00;100595.97;4826987;29;20204;-80
2022/01/26 11:26:00;;;;;;;15.23;8.37;;;;;;;4.55;100.00;100585.00;4842168;29;20195;-81
2022/01/26 11:28:28;;;;;;;14.67;9.60;;;;;;;4.65;100.00;100599.81;4841861;29;20668;-80
2022/01/26 11:30:59;;;;;;;14.00;9.33;;;;;;;4.63;100.00;100585.03;4841873;29;20205;-80
2022/01/26 11:33:28;;;;;;;16.50;9.83;;;;;;;4.57;100.00;100585.69;4827385;29;20618;-80
2022/01/26 11:35:57;;;;;;;16.47;9.23;;;;;;;4.36;100.00;100576.28;4827098;29;20188;-80
2022/01/26 11:47:04;;;;;;;16.23;10.60;;;;;;;3.48;100.00;100549.91;4841762;29;20204;-80
2022/01/26 11:49:38;;;;;;;16.23;9.57;;;;;;;3.38;100.00;100549.16;4841586;29;20193;-80
2022/01/26 11:52:20;;;;;;;18.17;11.13;;;;;;;3.35;100.00;100552.13;4840654;29;20179;-80
2022/01/26 11:54:53;;;;;;;15.50;10.77;;;;;;;3.32;100.00;100537.34;4826353;29;20311;-80
2022/01/26 11:57:52;;;;;;;15.40;9.37;;;;;;;3.21;100.00;100544.69;4841624;29;20189;-80
2022/01/26 12:00:48;;;;;;;14.40;8.97;;;;;;;3.32;100.00;100558.53;4841792;29;20239;-80
2022/01/26 12:03:23;;;;;;;15.70;9.60;;;;;;;3.22;100.00;100551.66;4841933;29;20184;-80
2022/01/26 12:05:52;;;;;;;14.07;8.50;;;;;;;3.31;100.00;100550.75;4811442;29;20208;-80
2022/01/26 12:08:31;;;;;;;17.33;10.43;;;;;;;3.42;100.00;100546.03;4841653;29;20640;-79
2022/01/26 12:10:58;;;;;;;15.03;9.70;;;;;;;3.66;100.00;100553.38;4841547;29;20253;-80
2022/01/26 12:13:28;;;;;;;15.00;10.33;;;;;;;3.74;100.00;100549.97;4826450;29;20681;-79
2022/01/26 12:16:06;;;;;;;19.27;10.80;;;;;;;3.81;100.00;100546.56;4826268;29;20216;-79
2022/01/26 12:18:54;;;;;;;17.93;10.60;;;;;;;3.66;100.00;100531.34;4794316;29;20224;-80
2022/01/26 12:38:16;;;;;;;16.97;10.30;;;;;;;3.54;100.00;100501.63;4826217;29;20208;-80
2022/01/26 12:43:50;;;;;;;16.87;10.40;;;;;;;3.39;100.00;100495.19;4826666;29;20197;-80
2022/01/26 12:46:18;;;;;;;17.13;9.97;;;;;;;3.28;100.00;100487.47;4811185;29;20209;-79
2022/01/26 12:48:54;;;;;;;15.03;9.80;;;;;;;2.87;100.00;100500.31;4827591;29;20269;-80
2022/01/26 12:51:22;;;;;;;16.17;10.60;;;;;;;3.00;100.00;100479.59;4811168;29;20254;-80
2022/01/26 12:53:56;;;;;;;14.80;9.30;;;;;;;2.82;100.00;100494.63;4824331;29;20225;-79
2022/01/26 12:56:29;;;;;;;14.97;10.00;;;;;;;2.74;100.00;100486.63;4810349;29;20251;-80
2022/01/26 12:59:07;;;;;;;17.43;10.63;;;;;;;2.75;100.00;100488.28;4811284;29;20512;-79
2022/01/26 13:01:35;;;;;;;16.83;10.17;;;;;;;2.72;100.00;100480.63;4825998;29;20258;-80
2022/01/26 13:04:04;;;;;;;15.73;9.97;;;;;;;2.51;100.00;100482.72;4826086;29;20217;-80
2022/01/26 13:06:35;;;;;;;15.07;9.73;;;;;;;2.70;100.00;100473.84;4826053;29;20193;-80
2022/01/26 13:09:26;;;;;;;15.40;10.10;;;;;;;2.73;100.00;100492.03;4810893;29;20209;-80
2022/01/26 13:11:57;;;;;;;20.90;10.60;;;;;;;2.72;100.00;100487.72;4826005;29;20197;-80
2022/01/26 13:14:38;;;;;;;19.97;13.37;;;;;;;2.59;100.00;100490.72;4826081;29;20296;-80
2022/01/26 13:38:14;;;;;;;18.23;11.27;;;;;;;2.97;100.00;100489.66;4844751;29;20196;-80
2022/01/26 13:43:52;;;;;;;17.63;10.90;;;;;;;3.11;100.00;100505.03;4844130;29;20241;-80
2022/01/26 13:59:31;;;;;;;18.87;10.73;;;;;;;3.30;100.00;100518.13;4843695;29;20536;-80
2022/01/26 14:01:59;;;;;;;23.97;12.70;;;;;;;3.34;100.00;100497.47;4843552;29;20258;-80
2022/01/26 14:04:26;;;;;;;20.93;13.00;;;;;;;3.25;100.00;100514.25;4843575;29;20204;-80
2022/01/26 14:06:53;;;;;;;17.33;10.93;;;;;;;3.34;100.00;100485.06;4828223;29;20495;-80
2022/01/26 14:09:20;;;;;;;17.77;10.63;;;;;;;3.46;100.00;100518.25;4843415;29;20196;-80
2022/01/26 14:11:48;;;;;;;18.43;11.17;;;;;;;3.38;100.00;100502.31;4843246;29;20586;-80
2022/01/26 14:14:23;;;;;;;20.20;12.27;;;;;;;3.58;100.00;100508.28;4828101;29;20264;-80
2022/01/26 14:16:58;;;;;;;19.70;11.83;;;;;;;3.63;100.00;100505.16;4827976;29;20235;-80
2022/01/26 14:27:16;;;;;;;19.40;12.00;;;;;;;3.21;100.00;100500.50;4825001;29;20178;-80